createdAt,value
2022-10-01T00:00:33.177Z,9.98
2022-10-01T00:01:33.444Z,9.98
2022-10-01T00:02:33.160Z,9.98
2022-10-01T00:03:33.135Z,9.96
2022-10-01T00:04:33.123Z,9.98
2022-10-01T00:05:33.150Z,10.01
2022-10-01T00:06:33.105Z,10.01
2022-10-01T00:07:33.089Z,9.99
2022-10-01T00:08:33.074Z,10.02
2022-10-01T00:09:33.103Z,10.02
2022-10-01T00:10:33.061Z,10.02
2022-10-01T00:11:33.258Z,9.99
2022-10-01T00:12:33.031Z,9.99
2022-10-01T00:13:33.024Z,10.03
2022-10-01T00:14:33.042Z,10.02
2022-10-01T00:15:33.005Z,10.01
2022-10-01T00:16:33.025Z,10.02
2022-10-01T00:17:32.987Z,9.96
2022-10-01T00:18:32.980Z,9.98
2022-10-01T00:19:32.977Z,9.93
2022-10-01T00:20:33.066Z,9.96
2022-10-01T00:21:33.243Z,9.98
2022-10-01T00:22:32.927Z,9.96
2022-10-01T00:23:32.917Z,9.99
2022-10-01T00:24:33.027Z,9.99
2022-10-01T00:25:32.896Z,9.99
2022-10-01T00:26:32.876Z,9.99
2022-10-01T00:27:32.877Z,9.98
2022-10-01T00:28:32.869Z,9.99
2022-10-01T00:29:32.848Z,9.98
2022-10-01T00:30:35.233Z,9.96
2022-10-01T00:31:33.318Z,9.98
2022-10-01T00:32:32.840Z,9.93
2022-10-01T00:33:32.822Z,9.90
2022-10-01T00:34:32.808Z,9.84
2022-10-01T00:35:32.791Z,9.83
2022-10-01T00:36:32.882Z,9.83
2022-10-01T00:37:32.759Z,9.84
2022-10-01T00:38:32.828Z,9.81
2022-10-01T00:39:32.740Z,9.77
2022-10-01T00:40:32.730Z,9.75
2022-10-01T00:41:33.215Z,9.72
2022-10-01T00:42:32.711Z,9.72
2022-10-01T00:43:32.691Z,9.70
2022-10-01T00:44:32.703Z,9.72
2022-10-01T00:45:32.722Z,9.72
2022-10-01T00:46:32.673Z,9.72
2022-10-01T00:47:32.685Z,9.70
2022-10-01T00:48:32.641Z,9.72
2022-10-01T00:49:32.633Z,9.69
2022-10-01T00:50:32.743Z,9.72
2022-10-01T00:51:33.033Z,9.70
2022-10-01T00:52:32.633Z,9.70
2022-10-01T00:53:32.594Z,9.66
2022-10-01T00:54:32.587Z,9.69
2022-10-01T00:55:35.342Z,9.72
2022-10-01T00:56:32.669Z,9.77
2022-10-01T00:57:32.653Z,9.78
2022-10-01T00:58:32.543Z,9.80
2022-10-01T00:59:32.524Z,9.80
2022-10-01T01:00:32.513Z,9.78
2022-10-01T01:01:32.852Z,9.77
2022-10-01T01:02:32.572Z,9.77
2022-10-01T01:03:32.483Z,9.78
2022-10-01T01:04:32.485Z,9.78
2022-10-01T01:05:32.462Z,9.80
2022-10-01T01:06:32.456Z,9.81
2022-10-01T01:07:32.465Z,9.81
2022-10-01T01:08:32.433Z,9.81
2022-10-01T01:09:32.415Z,9.84
2022-10-01T01:10:32.419Z,9.78
2022-10-01T01:11:32.692Z,9.77
2022-10-01T01:12:32.435Z,9.80
2022-10-01T01:13:32.377Z,9.83
2022-10-01T01:14:32.377Z,9.84
2022-10-01T01:15:32.404Z,9.81
2022-10-01T01:16:32.348Z,9.78
2022-10-01T01:17:32.368Z,9.78
2022-10-01T01:18:32.328Z,9.78
2022-10-01T01:19:32.317Z,9.80
2022-10-01T01:20:32.314Z,9.75
2022-10-01T01:21:32.707Z,9.73
2022-10-01T01:22:32.287Z,9.77
2022-10-01T01:23:32.293Z,9.78
2022-10-01T01:24:32.270Z,9.78
2022-10-01T01:25:32.251Z,9.78
2022-10-01T01:26:32.241Z,9.81
2022-10-01T01:27:32.231Z,9.78
2022-10-01T01:28:32.239Z,9.75
2022-10-01T01:29:32.201Z,9.72
2022-10-01T01:30:32.190Z,9.77
2022-10-01T01:31:32.683Z,9.77
2022-10-01T01:32:32.212Z,9.78
2022-10-01T01:33:32.162Z,9.80
2022-10-01T01:34:32.156Z,9.77
2022-10-01T01:35:32.149Z,9.72
2022-10-01T01:36:32.143Z,9.75
2022-10-01T01:37:32.151Z,9.77
2022-10-01T01:38:32.121Z,9.75
2022-10-01T01:39:32.091Z,9.63
2022-10-01T01:40:32.091Z,9.60
2022-10-01T01:41:32.394Z,9.60
2022-10-01T01:42:32.100Z,9.63
2022-10-01T01:43:32.084Z,9.57
2022-10-01T01:44:32.052Z,9.55
2022-10-01T01:45:32.041Z,9.60
2022-10-01T01:46:32.038Z,9.62
2022-10-01T01:47:32.073Z,9.63
2022-10-01T01:48:32.033Z,9.59
2022-10-01T01:49:32.063Z,9.57
2022-10-01T01:50:31.986Z,9.59
2022-10-01T01:51:32.350Z,9.57
2022-10-01T01:52:31.975Z,9.57
2022-10-01T01:53:31.968Z,9.57
2022-10-01T01:54:31.986Z,9.54
2022-10-01T01:55:31.927Z,9.51
2022-10-01T01:56:31.925Z,9.47
2022-10-01T01:57:31.908Z,9.47
2022-10-01T01:58:31.926Z,9.52
2022-10-01T01:59:31.887Z,9.52
2022-10-01T02:00:31.875Z,9.57
2022-10-01T02:01:32.282Z,9.52
2022-10-01T02:02:31.888Z,9.54
2022-10-01T02:03:31.864Z,9.57
2022-10-01T02:04:31.885Z,9.55
2022-10-01T02:05:31.827Z,9.55
2022-10-01T02:06:31.837Z,9.59
2022-10-01T02:07:31.799Z,9.59
2022-10-01T02:08:31.828Z,9.60
2022-10-01T02:09:31.780Z,9.62
2022-10-01T02:10:31.777Z,9.63
2022-10-01T02:11:32.141Z,9.60
2022-10-01T02:12:31.749Z,9.60
2022-10-01T02:13:31.741Z,9.60
2022-10-01T02:14:31.741Z,9.59
2022-10-01T02:15:31.709Z,9.54
2022-10-01T02:16:31.730Z,9.52
2022-10-01T02:17:31.690Z,9.52
2022-10-01T02:18:31.688Z,9.51
2022-10-01T02:19:31.710Z,9.51
2022-10-01T02:20:31.662Z,9.54
2022-10-01T02:21:32.161Z,9.51
2022-10-01T02:22:31.642Z,9.48
2022-10-01T02:23:31.650Z,9.47
2022-10-01T02:24:31.621Z,9.50
2022-10-01T02:25:31.613Z,9.48
2022-10-01T02:26:31.602Z,9.52
2022-10-01T02:27:31.629Z,9.45
2022-10-01T02:28:31.688Z,9.44
2022-10-01T02:29:31.562Z,9.42
2022-10-01T02:30:31.555Z,9.45
2022-10-01T02:31:31.788Z,9.48
2022-10-01T02:32:31.565Z,9.48
2022-10-01T02:33:31.522Z,9.48
2022-10-01T02:34:31.515Z,9.44
2022-10-01T02:35:31.505Z,9.45
2022-10-01T02:36:31.495Z,9.50
2022-10-01T02:37:31.495Z,9.52
2022-10-01T02:38:31.468Z,9.57
2022-10-01T02:39:31.459Z,9.54
2022-10-01T02:40:31.483Z,9.51
2022-10-01T02:41:31.791Z,9.54
2022-10-01T02:42:31.443Z,9.47
2022-10-01T02:43:31.426Z,9.48
2022-10-01T02:44:31.410Z,9.48
2022-10-01T02:45:31.477Z,9.42
2022-10-01T02:46:31.399Z,9.45
2022-10-01T02:47:31.423Z,9.47
2022-10-01T02:48:31.368Z,9.47
2022-10-01T02:49:31.358Z,9.50
2022-10-01T02:50:31.341Z,9.47
2022-10-01T02:51:31.630Z,9.52
2022-10-01T02:52:31.362Z,9.54
2022-10-01T02:53:31.307Z,9.57
2022-10-01T02:54:31.296Z,9.55
2022-10-01T02:55:31.299Z,9.55
2022-10-01T02:56:31.270Z,9.54
2022-10-01T02:57:31.278Z,9.52
2022-10-01T02:58:31.276Z,9.51
2022-10-01T02:59:31.249Z,9.52
2022-10-01T03:00:31.290Z,9.55
2022-10-01T03:01:31.561Z,9.51
2022-10-01T03:02:31.255Z,9.52
2022-10-01T03:03:31.222Z,9.47
2022-10-01T03:04:31.193Z,9.50
2022-10-01T03:05:31.180Z,9.50
2022-10-01T03:06:31.299Z,9.54
2022-10-01T03:07:31.204Z,9.54
2022-10-01T03:08:31.182Z,9.55
2022-10-01T03:09:31.141Z,9.52
2022-10-01T03:10:31.184Z,9.54
2022-10-01T03:11:31.402Z,9.57
2022-10-01T03:12:31.112Z,9.52
2022-10-01T03:13:31.132Z,9.52
2022-10-01T03:14:31.081Z,9.52
2022-10-01T03:15:31.073Z,9.52
2022-10-01T03:16:31.053Z,9.50
2022-10-01T03:17:31.070Z,9.48
2022-10-01T03:18:31.043Z,9.52
2022-10-01T03:19:31.061Z,9.51
2022-10-01T03:20:31.012Z,9.50
2022-10-01T03:21:31.426Z,9.45
2022-10-01T03:22:30.998Z,9.45
2022-10-01T03:23:30.992Z,9.47
2022-10-01T03:24:30.976Z,9.37
2022-10-01T03:25:30.985Z,9.37
2022-10-01T03:26:30.956Z,9.34
2022-10-01T03:27:30.954Z,9.37
2022-10-01T03:28:31.009Z,9.40
2022-10-01T03:29:30.936Z,9.40
2022-10-01T03:30:30.906Z,9.33
2022-10-01T03:31:31.308Z,9.34
2022-10-01T03:32:30.885Z,9.33
2022-10-01T03:33:30.886Z,9.36
2022-10-01T03:34:30.866Z,9.36
2022-10-01T03:35:30.857Z,9.36
2022-10-01T03:36:30.847Z,9.37
2022-10-01T03:37:30.867Z,9.34
2022-10-01T03:38:30.828Z,9.34
2022-10-01T03:39:30.817Z,9.36
2022-10-01T03:40:30.809Z,9.40
2022-10-01T03:41:30.997Z,9.42
2022-10-01T03:42:30.810Z,9.40
2022-10-01T03:43:30.779Z,9.42
2022-10-01T03:44:30.758Z,9.40
2022-10-01T03:45:30.775Z,9.41
2022-10-01T03:46:30.737Z,9.42
2022-10-01T03:47:30.769Z,9.45
2022-10-01T03:48:30.729Z,9.47
2022-10-01T03:49:30.711Z,9.42
2022-10-01T03:50:30.735Z,9.44
2022-10-01T03:51:30.693Z,9.50
2022-10-01T03:52:30.681Z,9.45
2022-10-01T03:53:30.681Z,9.45
2022-10-01T03:54:30.661Z,9.45
2022-10-01T03:55:30.653Z,9.48
2022-10-01T03:56:30.662Z,9.44
2022-10-01T03:57:30.631Z,9.45
2022-10-01T03:58:30.627Z,9.45
2022-10-01T03:59:30.606Z,9.40
2022-10-01T04:00:30.594Z,9.37
2022-10-01T04:01:30.674Z,9.41
2022-10-01T04:02:30.658Z,9.44
2022-10-01T04:03:30.562Z,9.41
2022-10-01T04:04:30.553Z,9.42
2022-10-01T04:05:30.544Z,9.42
2022-10-01T04:06:30.528Z,9.48
2022-10-01T04:07:30.644Z,9.52
2022-10-01T04:08:30.528Z,9.55
2022-10-01T04:09:30.505Z,9.54
2022-10-01T04:10:30.484Z,9.54
2022-10-01T04:11:30.741Z,9.54
2022-10-01T04:12:30.458Z,9.57
2022-10-01T04:13:30.456Z,9.51
2022-10-01T04:14:30.436Z,9.50
2022-10-01T04:15:30.425Z,9.54
2022-10-01T04:16:30.482Z,9.55
2022-10-01T04:17:30.407Z,9.54
2022-10-01T04:18:30.405Z,9.51
2022-10-01T04:19:30.395Z,9.51
2022-10-01T04:20:30.389Z,9.54
2022-10-01T04:21:30.548Z,9.50
2022-10-01T04:22:30.387Z,9.50
2022-10-01T04:23:30.351Z,9.47
2022-10-01T04:24:30.336Z,9.45
2022-10-01T04:25:30.323Z,9.47
2022-10-01T04:26:30.310Z,9.47
2022-10-01T04:27:30.330Z,9.50
2022-10-01T04:28:30.392Z,9.48
2022-10-01T04:29:30.299Z,9.50
2022-10-01T04:30:30.292Z,9.54
2022-10-01T04:31:30.290Z,9.54
2022-10-01T04:32:30.279Z,9.55
2022-10-01T04:33:30.240Z,9.57
2022-10-01T04:34:30.231Z,9.60
2022-10-01T04:35:30.258Z,9.62
2022-10-01T04:36:30.249Z,9.62
2022-10-01T04:37:30.186Z,9.65
2022-10-01T04:38:30.181Z,9.60
2022-10-01T04:39:30.161Z,9.63
2022-10-01T04:40:30.281Z,9.62
2022-10-01T04:41:30.153Z,9.62
2022-10-01T04:42:30.162Z,9.57
2022-10-01T04:43:30.120Z,9.54
2022-10-01T04:44:30.123Z,9.50
2022-10-01T04:45:30.116Z,9.47
2022-10-01T04:46:30.409Z,9.47
2022-10-01T04:47:30.764Z,9.48
2022-10-01T04:48:30.071Z,9.44
2022-10-01T04:49:30.091Z,9.47
2022-10-01T04:50:30.052Z,9.45
2022-10-01T04:51:30.042Z,9.45
2022-10-01T04:52:30.044Z,9.47
2022-10-01T04:53:30.033Z,9.47
2022-10-01T04:54:30.015Z,9.48
2022-10-01T04:55:30.025Z,9.48
2022-10-01T04:56:29.992Z,9.50
2022-10-01T04:57:29.975Z,9.42
2022-10-01T04:58:29.982Z,9.45
2022-10-01T04:59:29.965Z,9.44
2022-10-01T05:00:29.980Z,9.45
2022-10-01T05:01:30.009Z,9.44
2022-10-01T05:02:29.970Z,9.42
2022-10-01T05:03:29.917Z,9.41
2022-10-01T05:04:29.914Z,9.41
2022-10-01T05:05:29.895Z,9.34
2022-10-01T05:06:29.890Z,9.36
2022-10-01T05:07:29.907Z,9.34
2022-10-01T05:08:29.868Z,9.33
2022-10-01T05:09:29.848Z,9.33
2022-10-01T05:10:29.848Z,9.33
2022-10-01T05:11:29.835Z,9.32
2022-10-01T05:12:29.856Z,9.29
2022-10-01T05:13:29.810Z,9.29
2022-10-01T05:14:29.798Z,9.27
2022-10-01T05:15:29.787Z,9.26
2022-10-01T05:16:29.939Z,9.30
2022-10-01T05:17:29.774Z,9.30
2022-10-01T05:18:29.797Z,9.33
2022-10-01T05:19:29.739Z,9.33
2022-10-01T05:20:29.746Z,9.34
2022-10-01T05:21:29.736Z,9.37
2022-10-01T05:22:29.713Z,9.37
2022-10-01T05:23:29.701Z,9.34
2022-10-01T05:24:29.812Z,9.34
2022-10-01T05:25:29.681Z,9.33
2022-10-01T05:26:29.672Z,9.34
2022-10-01T05:27:29.660Z,9.37
2022-10-01T05:28:29.863Z,9.37
2022-10-01T05:29:29.676Z,9.37
2022-10-01T05:30:29.743Z,9.33
2022-10-01T05:31:29.822Z,9.34
2022-10-01T05:32:29.629Z,9.33
2022-10-01T05:33:29.593Z,9.33
2022-10-01T05:34:29.609Z,9.33
2022-10-01T05:35:29.602Z,9.34
2022-10-01T05:36:29.563Z,9.34
2022-10-01T05:37:29.564Z,9.34
2022-10-01T05:38:29.572Z,9.33
2022-10-01T05:39:29.537Z,9.36
2022-10-01T05:40:29.531Z,9.34
2022-10-01T05:41:29.512Z,9.33
2022-10-01T05:42:29.556Z,9.36
2022-10-01T05:43:29.524Z,9.33
2022-10-01T05:44:29.483Z,9.40
2022-10-01T05:45:29.500Z,9.37
2022-10-01T05:46:29.465Z,9.37
2022-10-01T05:47:29.444Z,9.41
2022-10-01T05:48:29.437Z,9.41
2022-10-01T05:49:29.475Z,9.41
2022-10-01T05:50:29.416Z,9.47
2022-10-01T05:51:29.401Z,9.48
2022-10-01T05:52:29.436Z,9.47
2022-10-01T05:53:29.385Z,9.47
2022-10-01T05:54:29.459Z,9.42
2022-10-01T05:55:29.356Z,9.42
2022-10-01T05:56:29.453Z,9.42
2022-10-01T05:57:29.759Z,9.44
2022-10-01T05:58:29.375Z,9.48
2022-10-01T05:59:31.901Z,9.47
2022-10-01T06:00:29.555Z,9.51
2022-10-01T06:01:29.290Z,9.48
2022-10-01T06:02:29.336Z,9.55
2022-10-01T06:03:29.321Z,9.57
2022-10-01T06:04:29.260Z,9.55
2022-10-01T06:05:29.249Z,9.59
2022-10-01T06:06:29.229Z,9.55
2022-10-01T06:07:29.260Z,9.60
2022-10-01T06:08:29.231Z,9.62
2022-10-01T06:09:29.230Z,9.62
2022-10-01T06:10:29.190Z,9.59
2022-10-01T06:11:29.179Z,9.63
2022-10-01T06:12:29.180Z,9.65
2022-10-01T06:13:29.184Z,9.67
2022-10-01T06:14:29.172Z,9.67
2022-10-01T06:15:29.152Z,9.69
2022-10-01T06:16:29.218Z,9.66
2022-10-01T06:17:29.131Z,9.63
2022-10-01T06:18:29.120Z,9.62
2022-10-01T06:19:29.114Z,9.63
2022-10-01T06:20:29.120Z,9.65
2022-10-01T06:21:29.165Z,9.70
2022-10-01T06:22:29.061Z,9.72
2022-10-01T06:23:29.059Z,9.72
2022-10-01T06:24:29.051Z,9.75
2022-10-01T06:25:29.162Z,9.73
2022-10-01T06:26:29.027Z,9.75
2022-10-01T06:27:29.012Z,9.78
2022-10-01T06:28:29.108Z,9.81
2022-10-01T06:29:28.995Z,9.83
2022-10-01T06:30:28.995Z,9.85
2022-10-01T06:31:29.050Z,9.84
2022-10-01T06:32:32.815Z,9.87
2022-10-01T06:33:29.993Z,9.81
2022-10-01T06:34:28.976Z,9.85
2022-10-01T06:35:29.023Z,9.87
2022-10-01T06:36:28.997Z,9.87
2022-10-01T06:37:28.956Z,9.90
2022-10-01T06:38:28.986Z,9.90
2022-10-01T06:39:28.960Z,9.93
2022-10-01T06:40:28.929Z,9.94
2022-10-01T06:41:28.879Z,9.98
2022-10-01T06:42:28.862Z,10.01
2022-10-01T06:43:28.879Z,9.96
2022-10-01T06:44:28.836Z,9.98
2022-10-01T06:45:28.894Z,9.96
2022-10-01T06:46:28.806Z,9.99
2022-10-01T06:47:28.852Z,10.02
2022-10-01T06:48:28.808Z,10.03
2022-10-01T06:49:28.782Z,10.03
2022-10-01T06:50:28.876Z,10.05
2022-10-01T06:51:28.750Z,10.05
2022-10-01T06:52:28.779Z,10.02
2022-10-01T06:53:28.740Z,10.03
2022-10-01T06:54:28.720Z,10.06
2022-10-01T06:55:28.722Z,10.06
2022-10-01T06:56:28.701Z,10.06
2022-10-01T06:57:28.703Z,10.08
2022-10-01T06:58:28.698Z,10.16
2022-10-01T06:59:28.672Z,10.14
2022-10-01T07:00:28.664Z,10.18
2022-10-01T07:01:28.694Z,10.20
2022-10-01T07:02:29.111Z,10.23
2022-10-01T07:03:28.672Z,10.24
2022-10-01T07:04:28.612Z,10.23
2022-10-01T07:05:28.601Z,10.21
2022-10-01T07:06:28.631Z,10.20
2022-10-01T07:07:30.103Z,10.18
2022-10-01T07:08:28.571Z,10.18
2022-10-01T07:09:28.552Z,10.18
2022-10-01T07:10:28.583Z,10.18
2022-10-01T07:11:28.540Z,10.21
2022-10-01T07:12:28.521Z,10.18
2022-10-01T07:13:28.514Z,10.20
2022-10-01T07:14:28.502Z,10.21
2022-10-01T07:15:28.496Z,10.23
2022-10-01T07:16:28.642Z,10.23
2022-10-01T07:17:28.474Z,10.24
2022-10-01T07:18:28.454Z,10.26
2022-10-01T07:19:28.451Z,10.27
2022-10-01T07:20:28.434Z,10.24
2022-10-01T07:21:28.457Z,10.27
2022-10-01T07:22:28.466Z,10.27
2022-10-01T07:23:28.415Z,10.27
2022-10-01T07:24:28.410Z,10.27
2022-10-01T07:25:28.386Z,10.28
2022-10-01T07:26:28.383Z,10.31
2022-10-01T07:27:28.367Z,10.31
2022-10-01T07:28:28.463Z,10.30
2022-10-01T07:29:28.360Z,10.35
2022-10-01T07:30:28.346Z,10.34
2022-10-01T07:31:28.390Z,10.35
2022-10-01T07:32:28.326Z,10.38
2022-10-01T07:33:28.307Z,10.38
2022-10-01T07:34:28.348Z,10.42
2022-10-01T07:35:28.289Z,10.42
2022-10-01T07:36:28.267Z,10.42
2022-10-01T07:37:28.268Z,10.42
2022-10-01T07:38:28.289Z,10.41
2022-10-01T07:39:28.379Z,10.46
2022-10-01T07:40:28.259Z,10.43
2022-10-01T07:41:28.220Z,10.45
2022-10-01T07:42:28.212Z,10.45
2022-10-01T07:43:28.199Z,10.43
2022-10-01T07:44:28.221Z,10.45
2022-10-01T07:45:28.225Z,10.46
2022-10-01T07:46:31.495Z,10.46
2022-10-01T07:47:29.161Z,10.48
2022-10-01T07:48:28.189Z,10.54
2022-10-01T07:49:28.141Z,10.54
2022-10-01T07:50:28.121Z,10.57
2022-10-01T07:51:28.121Z,10.57
2022-10-01T07:52:28.105Z,10.60
2022-10-01T07:53:28.123Z,10.60
2022-10-01T07:54:28.082Z,10.58
2022-10-01T07:55:28.082Z,10.60
2022-10-01T07:56:28.062Z,10.58
2022-10-01T07:57:28.053Z,10.57
2022-10-01T07:58:28.064Z,10.58
2022-10-01T07:59:28.146Z,10.61
2022-10-01T08:00:28.013Z,10.61
2022-10-01T08:01:28.085Z,10.64
2022-10-01T08:02:28.103Z,10.64
2022-10-01T08:03:28.011Z,10.64
2022-10-01T08:04:27.963Z,10.62
2022-10-01T08:05:27.964Z,10.62
2022-10-01T08:06:27.955Z,10.70
2022-10-01T08:07:27.946Z,10.70
2022-10-01T08:08:27.928Z,10.73
2022-10-01T08:09:27.976Z,10.72
2022-10-01T08:10:27.918Z,10.75
2022-10-01T08:11:27.926Z,10.75
2022-10-01T08:12:27.888Z,10.76
2022-10-01T08:13:27.887Z,10.76
2022-10-01T08:14:27.885Z,10.78
2022-10-01T08:15:27.857Z,10.76
2022-10-01T08:16:27.865Z,10.76
2022-10-01T08:17:29.587Z,10.82
2022-10-01T08:18:27.828Z,10.80
2022-10-01T08:19:27.819Z,10.80
2022-10-01T08:20:27.809Z,10.83
2022-10-01T08:21:27.798Z,10.85
2022-10-01T08:22:27.788Z,10.86
2022-10-01T08:23:27.821Z,10.85
2022-10-01T08:24:27.897Z,10.91
2022-10-01T08:25:27.758Z,10.90
2022-10-01T08:26:27.748Z,10.87
2022-10-01T08:27:27.729Z,10.87
2022-10-01T08:28:27.765Z,10.90
2022-10-01T08:29:27.819Z,10.90
2022-10-01T08:30:27.701Z,10.91
2022-10-01T08:31:27.706Z,10.94
2022-10-01T08:32:27.670Z,10.94
2022-10-01T08:33:27.659Z,10.95
2022-10-01T08:34:27.734Z,10.95
2022-10-01T08:35:27.660Z,10.98
2022-10-01T08:36:27.633Z,10.97
2022-10-01T08:37:27.624Z,10.98
2022-10-01T08:38:27.623Z,11.01
2022-10-01T08:39:27.600Z,11.01
2022-10-01T08:40:27.631Z,11.01
2022-10-01T08:41:27.583Z,11.03
2022-10-01T08:42:27.573Z,11.04
2022-10-01T08:43:27.555Z,11.05
2022-10-01T08:44:27.543Z,11.08
2022-10-01T08:45:27.631Z,11.11
2022-10-01T08:46:27.522Z,11.11
2022-10-01T08:47:27.517Z,11.12
2022-10-01T08:48:27.493Z,11.16
2022-10-01T08:49:27.484Z,11.15
2022-10-01T08:50:27.522Z,11.15
2022-10-01T08:51:27.481Z,11.18
2022-10-01T08:52:27.456Z,11.16
2022-10-01T08:53:27.444Z,11.18
2022-10-01T08:54:27.424Z,11.20
2022-10-01T08:55:27.463Z,11.23
2022-10-01T08:56:27.421Z,11.27
2022-10-01T08:57:27.406Z,11.30
2022-10-01T08:58:27.384Z,11.27
2022-10-01T08:59:27.607Z,11.28
2022-10-01T09:00:27.374Z,11.28
2022-10-01T09:01:27.461Z,11.28
2022-10-01T09:02:27.354Z,11.30
2022-10-01T09:03:27.380Z,11.31
2022-10-01T09:04:27.438Z,11.36
2022-10-01T09:05:27.347Z,11.36
2022-10-01T09:06:27.405Z,11.37
2022-10-01T09:07:27.287Z,11.41
2022-10-01T09:08:27.278Z,11.41
2022-10-01T09:09:27.266Z,11.40
2022-10-01T09:10:27.248Z,11.46
2022-10-01T09:11:27.256Z,11.46
2022-10-01T09:12:27.249Z,11.46
2022-10-01T09:13:27.230Z,11.48
2022-10-01T09:14:27.227Z,11.49
2022-10-01T09:15:27.234Z,11.52
2022-10-01T09:16:27.257Z,11.55
2022-10-01T09:17:27.199Z,11.55
2022-10-01T09:18:27.179Z,11.55
2022-10-01T09:19:27.171Z,11.56
2022-10-01T09:20:27.161Z,11.55
2022-10-01T09:21:27.208Z,11.59
2022-10-01T09:22:27.161Z,11.58
2022-10-01T09:23:27.132Z,11.58
2022-10-01T09:24:27.444Z,11.62
2022-10-01T09:25:27.147Z,11.64
2022-10-01T09:26:27.091Z,11.67
2022-10-01T09:27:27.090Z,11.67
2022-10-01T09:28:27.182Z,11.70
2022-10-01T09:29:27.063Z,11.70
2022-10-01T09:30:27.069Z,11.76
2022-10-01T09:31:27.134Z,11.76
2022-10-01T09:32:27.027Z,11.77
2022-10-01T09:33:27.014Z,11.82
2022-10-01T09:34:27.013Z,11.80
2022-10-01T09:35:27.024Z,11.84
2022-10-01T09:36:27.017Z,11.84
2022-10-01T09:37:26.982Z,11.89
2022-10-01T09:38:26.966Z,11.89
2022-10-01T09:39:26.956Z,11.89
2022-10-01T09:40:26.943Z,11.93
2022-10-01T09:41:26.981Z,11.96
2022-10-01T09:42:26.915Z,11.96
2022-10-01T09:43:26.915Z,11.99
2022-10-01T09:44:26.897Z,12.03
2022-10-01T09:45:27.011Z,12.03
2022-10-01T09:46:26.893Z,12.04
2022-10-01T09:47:26.888Z,12.04
2022-10-01T09:48:26.866Z,12.08
2022-10-01T09:49:26.835Z,12.10
2022-10-01T09:50:26.838Z,12.13
2022-10-01T09:51:26.838Z,12.14
2022-10-01T09:52:26.828Z,12.17
2022-10-01T09:53:26.808Z,12.18
2022-10-01T09:54:26.786Z,12.17
2022-10-01T09:55:26.799Z,12.17
2022-10-01T09:56:26.776Z,12.22
2022-10-01T09:57:26.879Z,12.21
2022-10-01T09:58:26.760Z,12.18
2022-10-01T09:59:26.778Z,12.22
2022-10-01T10:00:26.728Z,12.21
2022-10-01T10:01:26.709Z,12.22
2022-10-01T10:02:26.825Z,12.25
2022-10-01T10:03:26.768Z,12.26
2022-10-01T10:04:26.731Z,12.26
2022-10-01T10:05:26.679Z,12.30
2022-10-01T10:06:26.660Z,12.35
2022-10-01T10:07:26.650Z,12.35
2022-10-01T10:08:26.643Z,12.40
2022-10-01T10:09:26.749Z,12.38
2022-10-01T10:10:26.622Z,12.38
2022-10-01T10:11:26.601Z,12.38
2022-10-01T10:12:26.591Z,12.38
2022-10-01T10:13:26.597Z,12.40
2022-10-01T10:14:26.601Z,12.41
2022-10-01T10:15:26.562Z,12.46
2022-10-01T10:16:26.880Z,12.47
2022-10-01T10:17:26.552Z,12.47
2022-10-01T10:18:26.542Z,12.51
2022-10-01T10:19:26.644Z,12.55
2022-10-01T10:20:26.503Z,12.58
2022-10-01T10:21:26.495Z,12.55
2022-10-01T10:22:26.485Z,12.58
2022-10-01T10:23:26.528Z,12.58
2022-10-01T10:24:26.530Z,12.61
2022-10-01T10:25:26.455Z,12.63
2022-10-01T10:26:26.443Z,12.61
2022-10-01T10:27:26.435Z,12.59
2022-10-01T10:28:26.505Z,12.61
2022-10-01T10:29:26.446Z,12.61
2022-10-01T10:30:26.417Z,12.55
2022-10-01T10:31:26.432Z,12.58
2022-10-01T10:32:26.376Z,12.58
2022-10-01T10:33:26.404Z,12.62
2022-10-01T10:34:26.361Z,12.55
2022-10-01T10:35:26.478Z,12.51
2022-10-01T10:36:26.340Z,12.53
2022-10-01T10:37:26.327Z,12.50
2022-10-01T10:38:26.315Z,12.48
2022-10-01T10:39:26.316Z,12.47
2022-10-01T10:40:29.559Z,12.47
2022-10-01T10:41:26.314Z,12.48
2022-10-01T10:42:26.277Z,12.46
2022-10-01T10:43:26.282Z,12.47
2022-10-01T10:44:26.257Z,12.41
2022-10-01T10:45:26.241Z,12.38
2022-10-01T10:46:26.251Z,12.38
2022-10-01T10:47:26.221Z,12.38
2022-10-01T10:48:26.331Z,12.35
2022-10-01T10:49:26.209Z,12.35
2022-10-01T10:50:26.181Z,12.30
2022-10-01T10:51:26.198Z,12.32
2022-10-01T10:52:26.281Z,12.30
2022-10-01T10:53:26.181Z,12.30
2022-10-01T10:54:26.162Z,12.28
2022-10-01T10:55:26.130Z,12.28
2022-10-01T10:56:26.122Z,12.26
2022-10-01T10:57:26.127Z,12.25
2022-10-01T10:58:26.092Z,12.25
2022-10-01T10:59:26.104Z,12.26
2022-10-01T11:00:26.089Z,12.26
2022-10-01T11:01:26.188Z,12.28
2022-10-01T11:02:26.078Z,12.26
2022-10-01T11:03:26.056Z,12.22
2022-10-01T11:04:26.059Z,12.15
2022-10-01T11:05:26.032Z,12.18
2022-10-01T11:06:26.007Z,12.17
2022-10-01T11:07:25.994Z,12.15
2022-10-01T11:08:25.983Z,12.15
2022-10-01T11:09:26.003Z,12.15
2022-10-01T11:10:25.964Z,12.14
2022-10-01T11:11:25.968Z,12.11
2022-10-01T11:12:25.946Z,12.13
2022-10-01T11:13:25.936Z,12.14
2022-10-01T11:14:25.947Z,12.13
2022-10-01T11:15:25.917Z,12.13
2022-10-01T11:16:26.018Z,12.07
2022-10-01T11:17:25.898Z,12.05
2022-10-01T11:18:25.886Z,12.05
2022-10-01T11:19:25.898Z,12.04
2022-10-01T11:20:25.858Z,12.07
2022-10-01T11:21:25.856Z,12.05
2022-10-01T11:22:25.856Z,12.05
2022-10-01T11:23:25.849Z,12.05
2022-10-01T11:24:25.961Z,12.05
2022-10-01T11:25:25.809Z,12.05
2022-10-01T11:26:25.809Z,12.04
2022-10-01T11:27:25.779Z,12.03
2022-10-01T11:28:25.810Z,12.03
2022-10-01T11:29:25.766Z,12.03
2022-10-01T11:30:25.792Z,11.99
2022-10-01T11:31:25.780Z,11.93
2022-10-01T11:32:25.730Z,11.93
2022-10-01T11:33:25.721Z,11.95
2022-10-01T11:34:25.721Z,11.95
2022-10-01T11:35:25.700Z,11.96
2022-10-01T11:36:25.718Z,11.99
2022-10-01T11:37:25.683Z,11.97
2022-10-01T11:38:25.670Z,11.95
2022-10-01T11:39:25.658Z,11.95
2022-10-01T11:40:25.681Z,11.88
2022-10-01T11:41:25.641Z,11.82
2022-10-01T11:42:25.633Z,11.80
2022-10-01T11:43:25.625Z,11.79
2022-10-01T11:44:25.614Z,11.76
2022-10-01T11:45:25.598Z,11.76
2022-10-01T11:46:25.763Z,11.80
2022-10-01T11:47:25.573Z,11.82
2022-10-01T11:48:25.574Z,11.80
2022-10-01T11:49:25.554Z,11.80
2022-10-01T11:50:25.543Z,11.80
2022-10-01T11:51:25.524Z,11.76
2022-10-01T11:52:25.549Z,11.76
2022-10-01T11:53:25.506Z,11.73
2022-10-01T11:54:25.495Z,11.73
2022-10-01T11:55:25.489Z,11.74
2022-10-01T11:56:25.503Z,11.74
2022-10-01T11:57:25.594Z,11.77
2022-10-01T11:58:25.457Z,11.80
2022-10-01T11:59:25.445Z,11.71
2022-10-01T12:00:27.478Z,11.70
2022-10-01T12:01:25.877Z,11.69
2022-10-01T12:02:25.609Z,11.66
2022-10-01T12:03:25.388Z,11.62
2022-10-01T12:04:25.546Z,11.61
2022-10-01T12:05:25.414Z,11.61
2022-10-01T12:06:28.445Z,11.61
2022-10-01T12:07:26.348Z,11.62
2022-10-01T12:08:25.345Z,11.64
2022-10-01T12:09:25.346Z,11.67
2022-10-01T12:10:25.327Z,11.70
2022-10-01T12:11:25.383Z,11.69
2022-10-01T12:12:25.318Z,11.66
2022-10-01T12:13:25.304Z,11.66
2022-10-01T12:14:25.280Z,11.67
2022-10-01T12:15:25.267Z,11.62
2022-10-01T12:16:25.317Z,11.61
2022-10-01T12:17:25.290Z,11.59
2022-10-01T12:18:25.237Z,11.62
2022-10-01T12:19:25.230Z,11.62
2022-10-01T12:20:25.227Z,11.61
2022-10-01T12:21:25.191Z,11.61
2022-10-01T12:22:25.191Z,11.61
2022-10-01T12:23:25.201Z,11.61
2022-10-01T12:24:25.183Z,11.59
2022-10-01T12:25:25.184Z,11.61
2022-10-01T12:26:25.253Z,11.64
2022-10-01T12:27:25.133Z,11.64
2022-10-01T12:28:25.150Z,11.66
2022-10-01T12:29:25.234Z,11.64
2022-10-01T12:30:25.108Z,11.62
2022-10-01T12:31:25.138Z,11.62
2022-10-01T12:32:25.088Z,11.58
2022-10-01T12:33:25.063Z,11.55
2022-10-01T12:34:25.072Z,11.59
2022-10-01T12:35:25.083Z,11.55
2022-10-01T12:36:25.048Z,11.56
2022-10-01T12:37:25.074Z,11.59
2022-10-01T12:38:25.015Z,11.62
2022-10-01T12:39:25.052Z,11.58
2022-10-01T12:40:24.995Z,11.59
2022-10-01T12:41:24.988Z,11.61
2022-10-01T12:42:25.071Z,11.59
2022-10-01T12:43:24.967Z,11.59
2022-10-01T12:44:24.994Z,11.61
2022-10-01T12:45:24.944Z,11.56
2022-10-01T12:46:25.028Z,11.55
2022-10-01T12:47:24.958Z,11.56
2022-10-01T12:48:24.916Z,11.58
2022-10-01T12:49:24.896Z,11.58
2022-10-01T12:50:24.899Z,11.58
2022-10-01T12:51:24.898Z,11.56
2022-10-01T12:52:24.878Z,11.58
2022-10-01T12:53:24.899Z,11.56
2022-10-01T12:54:24.849Z,11.61
2022-10-01T12:55:24.833Z,11.59
2022-10-01T12:56:24.837Z,11.58
2022-10-01T12:57:24.809Z,11.56
2022-10-01T12:58:24.860Z,11.58
2022-10-01T12:59:24.800Z,11.56
2022-10-01T13:00:24.776Z,11.52
2022-10-01T13:01:24.802Z,11.54
2022-10-01T13:02:24.809Z,11.52
2022-10-01T13:03:24.754Z,11.58
2022-10-01T13:04:24.753Z,11.59
2022-10-01T13:05:24.736Z,11.61